createdAt,value
2022-09-28T00:01:10.565Z,94108.69
2022-09-28T00:03:37.518Z,94096.72
2022-09-28T00:06:07.786Z,94097.78
2022-09-28T00:08:36.258Z,94105.91
2022-09-28T00:11:05.128Z,94098.47
2022-09-28T00:13:32.939Z,94082.53
2022-09-28T00:16:05.203Z,94090.03
2022-09-28T00:18:33.071Z,94093.94
2022-09-28T00:21:24.480Z,94087.56
2022-09-28T00:24:12.623Z,94088.13
2022-09-28T00:26:42.288Z,94085.94
2022-09-28T00:29:27.184Z,94094.03
2022-09-28T00:32:00.081Z,94081.50
2022-09-28T00:34:27.424Z,94079.66
2022-09-28T00:36:54.164Z,94081.47
2022-09-28T00:39:21.524Z,94091.00
2022-09-28T00:41:48.578Z,94086.44
2022-09-28T00:44:33.928Z,94080.19
2022-09-28T00:47:25.468Z,94082.38
2022-09-28T00:50:03.020Z,94081.38
2022-09-28T00:52:40.626Z,94075.66
2022-09-28T00:55:12.011Z,94080.66
2022-09-28T00:57:42.833Z,94088.50
2022-09-28T01:00:11.185Z,94093.13
2022-09-28T01:02:39.053Z,94077.50
2022-09-28T01:05:07.453Z,94087.53
2022-09-28T01:07:35.644Z,94086.44
2022-09-28T01:10:03.396Z,94083.59
2022-09-28T01:12:30.375Z,94082.34
2022-09-28T01:15:00.537Z,94082.28
2022-09-28T01:18:08.991Z,94089.88
2022-09-28T01:20:54.151Z,94083.88
2022-09-28T01:23:50.750Z,94072.97
2022-09-28T01:26:34.400Z,94085.03
2022-09-28T01:29:11.465Z,94090.72
2022-09-28T01:31:41.848Z,94088.56
2022-09-28T01:34:18.795Z,94093.34
2022-09-28T01:36:53.857Z,94105.81
2022-09-28T01:39:28.307Z,94114.69
2022-09-28T01:42:01.007Z,94113.53
2022-09-28T01:44:32.664Z,94107.56
2022-09-28T01:47:04.257Z,94102.28
2022-09-28T01:49:40.154Z,94101.09
2022-09-28T01:52:19.847Z,94117.00
2022-09-28T01:54:57.149Z,94104.09
2022-09-28T01:57:45.585Z,94096.06
2022-09-28T02:00:16.027Z,94105.31
2022-09-28T02:02:56.264Z,94106.94
2022-09-28T02:05:37.094Z,94099.06
2022-09-28T02:08:11.408Z,94117.81
2022-09-28T02:10:52.412Z,94141.59
2022-09-28T02:13:28.160Z,94129.56
2022-09-28T02:16:00.874Z,94115.97
2022-09-28T02:18:27.969Z,94138.06
2022-09-28T02:21:13.272Z,94107.94
2022-09-28T02:23:49.904Z,94100.06
2022-09-28T02:26:20.626Z,94116.81
2022-09-28T02:28:48.740Z,94118.41
2022-09-28T02:31:15.576Z,94118.84
2022-09-28T02:33:44.710Z,94128.50
2022-09-28T02:36:11.620Z,94127.25
2022-09-28T02:38:39.219Z,94113.41
2022-09-28T02:41:29.480Z,94109.66
2022-09-28T02:44:17.432Z,94135.53
2022-09-28T02:47:02.892Z,94119.47
2022-09-28T02:49:47.518Z,94125.47
2022-09-28T02:52:49.125Z,94125.81
2022-09-28T02:56:00.639Z,94115.16
2022-09-28T02:58:33.304Z,94132.00
2022-09-28T03:01:20.464Z,94121.59
2022-09-28T03:03:55.357Z,94120.28
2022-09-28T03:06:34.819Z,94125.03
2022-09-28T03:09:08.495Z,94132.41
2022-09-28T03:11:48.124Z,94119.28
2022-09-28T03:14:16.020Z,94136.28
2022-09-28T03:16:50.112Z,94141.28
2022-09-28T03:19:21.489Z,94140.69
2022-09-28T03:21:49.361Z,94144.34
2022-09-28T03:24:16.227Z,94143.28
2022-09-28T03:26:43.230Z,94142.59
2022-09-28T03:29:11.191Z,94152.47
2022-09-28T03:31:38.633Z,94164.75
2022-09-28T03:34:05.768Z,94148.66
2022-09-28T03:36:32.670Z,94152.47
2022-09-28T03:38:59.711Z,94167.47
2022-09-28T03:41:30.154Z,94162.03
2022-09-28T03:43:56.932Z,94161.13
2022-09-28T03:46:26.387Z,94164.84
2022-09-28T03:48:58.630Z,94160.16
2022-09-28T03:51:26.139Z,94160.16
2022-09-28T03:53:53.685Z,94138.00
2022-09-28T03:56:21.063Z,94158.94
2022-09-28T03:58:47.800Z,94164.56
2022-09-28T04:01:18.637Z,94153.50
2022-09-28T04:03:47.784Z,94169.50
2022-09-28T04:06:15.011Z,94158.75
2022-09-28T04:08:43.462Z,94165.47
2022-09-28T04:11:11.444Z,94171.97
2022-09-28T04:13:38.275Z,94152.22
2022-09-28T04:16:08.141Z,94144.22
2022-09-28T04:18:35.735Z,94157.34
2022-09-28T04:21:13.534Z,94152.25
2022-09-28T04:23:44.719Z,94145.81
2022-09-28T04:26:20.798Z,94146.13
2022-09-28T04:29:07.407Z,94154.66
2022-09-28T04:31:47.211Z,94165.06
2022-09-28T04:34:18.386Z,94156.72
2022-09-28T04:36:45.998Z,94155.75
2022-09-28T04:39:14.266Z,94154.75
2022-09-28T04:41:43.840Z,94158.31
2022-09-28T04:44:10.896Z,94148.03
2022-09-28T04:46:37.796Z,94139.84
2022-09-28T04:49:25.056Z,94158.50
2022-09-28T04:51:54.895Z,94155.78
2022-09-28T04:54:21.822Z,94149.63
2022-09-28T04:56:49.132Z,94149.94
2022-09-28T04:59:15.954Z,94153.28
2022-09-28T05:01:44.637Z,94153.69
2022-09-28T05:04:43.868Z,94140.03
2022-09-28T05:07:29.057Z,94148.72
2022-09-28T05:09:57.276Z,94155.22
2022-09-28T05:12:24.495Z,94148.56
2022-09-28T05:14:51.258Z,94146.25
2022-09-28T05:17:18.413Z,94156.91
2022-09-28T05:20:09.040Z,94146.75
2022-09-28T05:22:35.846Z,94162.22
2022-09-28T05:25:04.945Z,94172.38
2022-09-28T05:27:41.721Z,94175.06
2022-09-28T05:30:23.903Z,94172.81
2022-09-28T05:33:09.129Z,94178.28
2022-09-28T05:35:47.860Z,94172.09
2022-09-28T05:38:16.799Z,94177.00
2022-09-28T05:40:43.823Z,94170.94
2022-09-28T05:43:10.616Z,94179.94
2022-09-28T05:45:38.084Z,94169.66
2022-09-28T05:48:05.108Z,94174.06
2022-09-28T05:50:31.882Z,94177.19
2022-09-28T05:53:07.749Z,94174.38
2022-09-28T05:55:37.726Z,94178.56
2022-09-28T05:58:06.740Z,94165.16
2022-09-28T06:00:35.811Z,94181.69
2022-09-28T06:03:09.397Z,94172.16
2022-09-28T06:05:39.478Z,94168.13
2022-09-28T06:08:10.455Z,94177.97
2022-09-28T06:10:38.995Z,94177.59
2022-09-28T06:13:06.688Z,94183.81
2022-09-28T06:15:35.984Z,94185.66
2022-09-28T06:18:04.870Z,94188.78
2022-09-28T06:20:41.328Z,94197.22
2022-09-28T06:23:13.782Z,94192.84
2022-09-28T06:25:41.248Z,94190.91
2022-09-28T06:28:11.925Z,94195.06
2022-09-28T06:30:41.346Z,94192.06
2022-09-28T06:33:13.845Z,94197.78
2022-09-28T06:35:41.062Z,94208.22
2022-09-28T06:38:08.210Z,94201.81
2022-09-28T06:40:35.997Z,94202.88
2022-09-28T06:43:12.644Z,94190.41
2022-09-28T06:45:58.248Z,94191.88
2022-09-28T06:48:34.050Z,94200.75
2022-09-28T06:51:02.431Z,94202.44
2022-09-28T06:53:37.754Z,94210.13
2022-09-28T06:56:26.465Z,94209.06
2022-09-28T06:58:56.355Z,94205.97
2022-09-28T07:01:24.627Z,94211.22
2022-09-28T07:04:17.489Z,94192.53
2022-09-28T07:06:54.269Z,94192.34
2022-09-28T07:09:44.965Z,94209.59
2022-09-28T07:12:35.824Z,94214.88
2022-09-28T07:15:12.269Z,94220.34
2022-09-28T07:17:52.150Z,94211.34
2022-09-28T07:20:25.420Z,94213.31
2022-09-28T07:22:56.296Z,94210.59
2022-09-28T07:25:25.668Z,94209.28
2022-09-28T07:28:07.391Z,94207.69
2022-09-28T07:31:13.085Z,94207.53
2022-09-28T07:34:00.336Z,94214.59
2022-09-28T07:36:36.347Z,94211.63
2022-09-28T07:39:03.944Z,94210.84
2022-09-28T07:41:33.673Z,94213.72
2022-09-28T07:44:06.423Z,94211.91
2022-09-28T07:46:35.839Z,94214.38
2022-09-28T07:49:16.894Z,94212.78
2022-09-28T07:52:09.115Z,94210.25
2022-09-28T07:54:40.507Z,94202.25
2022-09-28T07:57:24.356Z,94215.81
2022-09-28T08:00:09.108Z,94212.44
2022-09-28T08:02:45.633Z,94214.50
2022-09-28T08:05:17.200Z,94212.44
2022-09-28T08:07:44.808Z,94213.28
2022-09-28T08:10:12.872Z,94219.34
2022-09-28T08:13:16.565Z,94224.00
2022-09-28T08:16:05.181Z,94212.56
2022-09-28T08:18:39.989Z,94200.09
2022-09-28T08:21:25.678Z,94211.53
2022-09-28T08:23:53.236Z,94211.78
2022-09-28T08:26:20.080Z,94205.34
2022-09-28T08:28:47.898Z,94209.91
2022-09-28T08:31:33.563Z,94209.88
2022-09-28T08:34:17.313Z,94218.16
2022-09-28T08:37:03.775Z,94223.03
2022-09-28T08:39:50.688Z,94197.50
2022-09-28T08:42:58.742Z,94217.47
2022-09-28T08:45:44.392Z,94209.53
2022-09-28T08:49:01.121Z,94197.31
2022-09-28T08:52:23.429Z,94206.81
2022-09-28T08:55:33.046Z,94200.16
2022-09-28T08:58:17.650Z,94192.63
2022-09-28T09:00:53.086Z,94185.47
2022-09-28T09:03:35.995Z,94177.50
2022-09-28T09:06:49.981Z,94173.81
2022-09-28T09:10:13.424Z,94178.22
2022-09-28T09:12:46.644Z,94190.66
2022-09-28T09:15:27.240Z,94181.84
2022-09-28T09:18:06.303Z,94175.03
2022-09-28T09:21:28.510Z,94184.97
2022-09-28T09:24:03.681Z,94180.19
2022-09-28T09:26:39.612Z,94166.44
2022-09-28T09:29:21.599Z,94166.41
2022-09-28T09:32:14.356Z,94170.06
2022-09-28T09:35:00.046Z,94170.34
2022-09-28T09:38:19.143Z,94173.25
2022-09-28T09:41:38.431Z,94164.09
2022-09-28T09:45:14.201Z,94157.50
2022-09-28T09:48:11.482Z,94162.16
2022-09-28T09:51:19.952Z,94157.81
2022-09-28T09:54:00.105Z,94155.78
2022-09-28T09:56:36.938Z,94150.81
2022-09-28T09:59:29.960Z,94144.03
2022-09-28T10:02:31.765Z,94148.59
2022-09-28T10:05:21.061Z,94148.13
2022-09-28T10:08:12.015Z,94151.00
2022-09-28T10:10:51.448Z,94143.88
2022-09-28T10:13:20.140Z,94146.25
2022-09-28T10:15:48.065Z,94143.88
2022-09-28T10:18:22.108Z,94148.41
2022-09-28T10:21:11.623Z,94144.53
2022-09-28T10:23:55.158Z,94146.28
2022-09-28T10:26:32.287Z,94139.41
2022-09-28T10:29:02.029Z,94132.25
2022-09-28T10:31:41.056Z,94133.94
2022-09-28T10:34:15.841Z,94124.75
2022-09-28T10:36:51.143Z,94123.13
2022-09-28T10:39:30.249Z,94116.47
2022-09-28T10:42:00.186Z,94110.31
2022-09-28T10:44:32.677Z,94111.13
2022-09-28T10:47:09.932Z,94108.00
2022-09-28T10:49:47.402Z,94108.63
2022-09-28T10:52:40.348Z,94098.09
2022-09-28T10:55:21.517Z,94096.56
2022-09-28T10:57:48.663Z,94097.63
2022-09-28T11:00:42.839Z,94098.81
2022-09-28T11:03:29.008Z,94090.75
2022-09-28T11:06:07.117Z,94084.25
2022-09-28T11:08:42.656Z,94082.00
2022-09-28T11:11:16.344Z,94078.88
2022-09-28T11:13:55.827Z,94072.75
2022-09-28T11:16:32.028Z,94065.84
2022-09-28T11:19:25.412Z,94063.38
2022-09-28T11:21:52.430Z,94061.69
2022-09-28T11:24:26.018Z,94059.91
2022-09-28T11:27:00.124Z,94054.16
2022-09-28T11:29:41.677Z,94048.03
2022-09-28T11:32:22.103Z,94051.44
2022-09-28T11:35:21.979Z,94051.06
2022-09-28T11:38:27.700Z,94044.44
2022-09-28T11:41:49.971Z,94040.25
2022-09-28T11:44:29.452Z,94034.38
2022-09-28T11:47:30.049Z,94046.44
2022-09-28T11:50:23.729Z,94047.75
2022-09-28T11:53:03.910Z,94047.91
2022-09-28T11:55:43.952Z,94053.00
2022-09-28T11:58:30.414Z,94046.31
2022-09-28T12:01:39.213Z,94040.53
2022-09-28T12:04:26.799Z,94035.38
2022-09-28T12:06:57.181Z,94028.19
2022-09-28T12:09:55.729Z,94025.72
2022-09-28T12:12:28.599Z,94025.84
2022-09-28T12:15:03.147Z,94026.47
2022-09-28T12:17:44.105Z,94017.66
2022-09-28T12:20:26.234Z,94025.94
2022-09-28T12:22:56.053Z,94029.81
2022-09-28T12:25:23.880Z,94024.03
2022-09-28T12:27:53.007Z,94035.50
2022-09-28T12:30:22.194Z,94019.63
2022-09-28T12:33:05.541Z,94038.03
2022-09-28T12:35:55.854Z,94035.25
2022-09-28T12:38:41.848Z,94034.75
2022-09-28T12:41:39.492Z,94024.00
2022-09-28T12:44:42.711Z,94022.56
2022-09-28T12:47:32.556Z,94023.63
2022-09-28T12:50:40.626Z,94028.44
2022-09-28T12:53:20.126Z,94033.81
2022-09-28T12:55:58.806Z,94029.94
2022-09-28T12:58:37.423Z,94017.97
2022-09-28T13:01:13.772Z,94024.81
2022-09-28T13:03:49.289Z,94036.31
2022-09-28T13:06:51.857Z,94030.94
2022-09-28T13:09:24.268Z,94030.91
2022-09-28T13:11:54.760Z,94032.47
2022-09-28T13:14:40.175Z,94035.25
2022-09-28T13:17:18.598Z,94035.00
2022-09-28T13:19:58.416Z,94023.84
2022-09-28T13:22:43.491Z,94019.66
2022-09-28T13:25:17.042Z,94028.13
2022-09-28T13:27:56.670Z,94023.41
2022-09-28T13:30:23.611Z,94020.03
2022-09-28T13:32:50.628Z,94035.78
2022-09-28T13:35:22.003Z,94039.94
2022-09-28T13:38:17.823Z,94031.13
2022-09-28T13:41:06.656Z,94026.53
2022-09-28T13:44:00.271Z,94020.81
2022-09-28T13:46:55.191Z,94024.25
2022-09-28T13:49:24.599Z,94017.50
2022-09-28T13:52:09.532Z,94003.69
2022-09-28T13:54:58.171Z,94008.88
2022-09-28T13:57:50.080Z,94021.19
2022-09-28T14:00:25.424Z,94010.28
2022-09-28T14:03:24.012Z,94007.38
2022-09-28T14:06:18.410Z,94013.50
2022-09-28T14:09:15.799Z,94006.94
2022-09-28T14:11:44.285Z,94016.69
2022-09-28T14:14:11.904Z,94009.56
2022-09-28T14:16:42.411Z,94016.00
2022-09-28T14:19:27.181Z,94004.75
2022-09-28T14:22:15.361Z,94006.47
2022-09-28T14:25:09.007Z,94010.75
2022-09-28T14:28:17.375Z,94008.47
2022-09-28T14:30:48.734Z,93999.09
2022-09-28T14:33:28.198Z,93996.44
2022-09-28T14:35:58.328Z,93999.16
2022-09-28T14:39:06.830Z,94008.69
2022-09-28T14:41:39.724Z,94010.97
2022-09-28T14:44:11.092Z,94005.84
2022-09-28T14:46:40.508Z,94006.50
2022-09-28T14:49:25.037Z,94014.22
2022-09-28T14:52:02.173Z,93992.06
2022-09-28T14:54:43.084Z,93998.09
2022-09-28T14:57:21.572Z,94006.50
2022-09-28T14:59:49.044Z,93996.63
2022-09-28T15:02:36.060Z,94001.66
2022-09-28T15:05:38.884Z,94010.91
2022-09-28T15:08:07.935Z,94002.44
2022-09-28T15:10:39.216Z,94010.59
2022-09-28T15:13:20.078Z,94006.13
2022-09-28T15:15:50.573Z,94012.22
2022-09-28T15:18:50.296Z,94019.59
2022-09-28T15:21:17.755Z,94027.22
2022-09-28T15:23:45.603Z,94029.56
2022-09-28T15:26:33.154Z,94033.44
2022-09-28T15:29:03.321Z,94037.72
2022-09-28T15:31:34.523Z,94033.50
2022-09-28T15:34:19.995Z,94031.91
2022-09-28T15:36:47.292Z,94029.53
2022-09-28T15:39:17.067Z,94041.22
2022-09-28T15:41:46.144Z,94028.84
2022-09-28T15:44:14.865Z,94038.47
2022-09-28T15:46:47.771Z,94041.22
2022-09-28T15:49:38.967Z,94045.00
2022-09-28T15:52:06.264Z,94035.69
2022-09-28T15:54:44.177Z,94045.78
2022-09-28T15:57:31.003Z,94045.84
2022-09-28T15:59:59.460Z,94050.41
2022-09-28T16:02:27.232Z,94039.66
2022-09-28T16:05:00.819Z,94040.44
2022-09-28T16:07:38.722Z,94040.41
2022-09-28T16:10:15.310Z,94046.91
2022-09-28T16:12:50.192Z,94044.59
2022-09-28T16:15:25.871Z,94050.19
2022-09-28T16:18:00.691Z,94058.66
2022-09-28T16:20:32.195Z,94059.03
2022-09-28T16:23:05.964Z,94056.25
2022-09-28T16:25:37.527Z,94050.88
2022-09-28T16:28:06.872Z,94062.94
2022-09-28T16:30:34.900Z,94060.28
2022-09-28T16:33:05.856Z,94054.78
2022-09-28T16:35:35.456Z,94053.28
2022-09-28T16:38:04.278Z,94067.53
2022-09-28T16:40:33.099Z,94062.81
2022-09-28T16:43:03.510Z,94057.91
2022-09-28T16:45:30.618Z,94059.84
2022-09-28T16:47:58.825Z,94060.84
2022-09-28T16:50:26.263Z,94055.63
2022-09-28T16:53:18.821Z,94061.78
2022-09-28T16:55:48.674Z,94072.19
2022-09-28T16:58:15.544Z,94065.38
2022-09-28T17:00:43.738Z,94065.16
2022-09-28T17:03:14.591Z,94068.75
2022-09-28T17:05:41.818Z,94065.13
2022-09-28T17:08:13.655Z,94067.16
2022-09-28T17:11:14.816Z,94059.13
2022-09-28T17:13:45.945Z,94075.25
2022-09-28T17:16:12.585Z,94064.50
2022-09-28T17:18:40.011Z,94061.41
2022-09-28T17:21:12.505Z,94060.69
2022-09-28T17:23:39.319Z,94060.69
2022-09-28T17:26:06.731Z,94070.78
2022-09-28T17:28:36.242Z,94066.94
2022-09-28T17:31:04.381Z,94067.81
2022-09-28T17:33:31.640Z,94058.84
2022-09-28T17:36:04.743Z,94071.72
2022-09-28T17:38:31.991Z,94075.47
2022-09-28T17:40:59.125Z,94072.09
2022-09-28T17:43:25.985Z,94079.72
2022-09-28T17:45:52.993Z,94082.16
2022-09-28T17:48:23.411Z,94076.97
2022-09-28T17:50:51.431Z,94083.50
2022-09-28T17:53:18.091Z,94085.75
2022-09-28T17:55:44.877Z,94095.22
2022-09-28T17:58:14.559Z,94093.41
2022-09-28T18:00:41.544Z,94100.22
2022-09-28T18:03:20.004Z,94096.44
2022-09-28T18:05:49.804Z,94100.44
2022-09-28T18:08:21.278Z,94085.78
2022-09-28T18:10:50.344Z,94102.03
2022-09-28T18:13:17.047Z,94114.41
2022-09-28T18:15:44.165Z,94107.25
2022-09-28T18:18:12.839Z,94105.75
2022-09-28T18:20:41.308Z,94112.78
2022-09-28T18:23:08.139Z,94104.00
2022-09-28T18:25:34.999Z,94117.34
2022-09-28T18:28:01.737Z,94126.03
2022-09-28T18:30:28.934Z,94117.91
2022-09-28T18:32:56.127Z,94130.75
2022-09-28T18:35:23.539Z,94128.88
2022-09-28T18:37:50.666Z,94136.94
2022-09-28T18:40:18.048Z,94118.22
2022-09-28T18:42:44.832Z,94128.63
2022-09-28T18:45:12.075Z,94151.97
2022-09-28T18:47:39.248Z,94142.88
2022-09-28T18:50:06.506Z,94143.84
2022-09-28T18:52:37.267Z,94138.47
2022-09-28T18:55:05.639Z,94147.13
2022-09-28T18:57:33.703Z,94141.81
2022-09-28T19:00:06.415Z,94139.09
2022-09-28T19:02:33.318Z,94159.78
2022-09-28T19:05:00.221Z,94179.56
2022-09-28T19:07:27.306Z,94158.75
2022-09-28T19:09:54.337Z,94158.44
2022-09-28T19:12:21.161Z,94161.88
2022-09-28T19:14:47.981Z,94170.22
2022-09-28T19:17:14.773Z,94175.81
2022-09-28T19:19:45.014Z,94168.06
2022-09-28T19:22:12.215Z,94162.50
2022-09-28T19:24:39.267Z,94160.50
2022-09-28T19:27:05.921Z,94154.16
2022-09-28T19:29:32.810Z,94160.19
2022-09-28T19:31:59.541Z,94165.03
2022-09-28T19:34:29.915Z,94174.00
2022-09-28T19:36:57.510Z,94164.88
2022-09-28T19:39:24.351Z,94171.59
2022-09-28T19:41:52.467Z,94176.53
2022-09-28T19:44:25.210Z,94172.38
2022-09-28T19:46:59.583Z,94161.16
2022-09-28T19:49:27.917Z,94185.88
2022-09-28T19:52:14.393Z,94185.47
2022-09-28T19:55:07.473Z,94176.03
2022-09-28T19:57:34.906Z,94181.69
2022-09-28T20:00:03.513Z,94183.31
2022-09-28T20:02:34.989Z,94166.47
2022-09-28T20:05:02.295Z,94174.66
2022-09-28T20:07:32.801Z,94185.22
2022-09-28T20:09:59.939Z,94176.31
2022-09-28T20:12:26.900Z,94177.50
2022-09-28T20:14:54.289Z,94188.03
2022-09-28T20:17:21.797Z,94190.09
2022-09-28T20:19:51.079Z,94190.03
2022-09-28T20:22:18.703Z,94175.94
2022-09-28T20:24:45.597Z,94174.88
2022-09-28T20:27:12.371Z,94169.00
2022-09-28T20:29:39.213Z,94174.41
2022-09-28T20:32:05.981Z,94190.09
2022-09-28T20:34:33.969Z,94188.91
2022-09-28T20:37:01.178Z,94184.34
2022-09-28T20:39:28.095Z,94191.91
2022-09-28T20:41:55.032Z,94190.06
2022-09-28T20:44:22.000Z,94191.53
2022-09-28T20:46:51.965Z,94185.00
2022-09-28T20:49:18.928Z,94192.78
2022-09-28T20:51:45.723Z,94179.97
2022-09-28T20:54:12.811Z,94206.41
2022-09-28T20:56:39.503Z,94210.38
2022-09-28T20:59:12.022Z,94201.81
2022-09-28T21:01:39.557Z,94217.28
2022-09-28T21:04:08.634Z,94207.53
2022-09-28T21:06:38.050Z,94210.38
2022-09-28T21:09:07.080Z,94210.88
2022-09-28T21:11:35.830Z,94234.63
2022-09-28T21:14:06.289Z,94232.66
2022-09-28T21:16:34.907Z,94227.53
2022-09-28T21:19:01.719Z,94211.63
2022-09-28T21:21:28.681Z,94229.81
2022-09-28T21:23:56.844Z,94251.00
2022-09-28T21:26:27.166Z,94254.66
2022-09-28T21:28:59.230Z,94227.97
2022-09-28T21:31:29.369Z,94236.97
2022-09-28T21:33:57.546Z,94237.63
2022-09-28T21:36:25.704Z,94233.56
2022-09-28T21:38:54.520Z,94241.00
2022-09-28T21:41:21.420Z,94243.97
2022-09-28T21:43:48.111Z,94231.22
2022-09-28T21:46:15.015Z,94233.31
2022-09-28T21:48:41.787Z,94240.22
2022-09-28T21:51:12.622Z,94242.41
2022-09-28T21:53:39.706Z,94225.56
2022-09-28T21:56:08.119Z,94225.63
2022-09-28T21:58:36.025Z,94229.06
2022-09-28T22:01:15.475Z,94234.94
2022-09-28T22:03:45.115Z,94233.56
2022-09-28T22:06:11.974Z,94223.31
2022-09-28T22:08:39.510Z,94220.13
2022-09-28T22:11:11.738Z,94219.34
2022-09-28T22:13:44.029Z,94228.97
2022-09-28T22:16:12.798Z,94224.16
2022-09-28T22:18:40.133Z,94217.47
2022-09-28T22:21:11.638Z,94213.41
2022-09-28T22:23:40.017Z,94220.06
2022-09-28T22:26:12.969Z,94225.88
2022-09-28T22:28:45.724Z,94225.75
2022-09-28T22:31:12.796Z,94225.13
2022-09-28T22:33:39.672Z,94214.53
2022-09-28T22:36:07.973Z,94220.22
2022-09-28T22:38:35.321Z,94217.97
2022-09-28T22:41:05.143Z,94226.47
2022-09-28T22:43:32.059Z,94210.84
2022-09-28T22:46:03.436Z,94208.03
2022-09-28T22:48:30.803Z,94229.69
2022-09-28T22:50:57.607Z,94225.31
2022-09-28T22:53:24.772Z,94222.56
2022-09-28T22:55:52.793Z,94210.06
2022-09-28T22:58:19.649Z,94219.72
2022-09-28T23:00:46.580Z,94221.59
2022-09-28T23:03:13.524Z,94214.28
2022-09-28T23:05:40.500Z,94220.38
2022-09-28T23:08:07.379Z,94226.19
2022-09-28T23:10:34.404Z,94234.94
2022-09-28T23:13:01.152Z,94216.91
2022-09-28T23:15:29.009Z,94216.59
2022-09-28T23:17:55.770Z,94220.03
2022-09-28T23:20:22.706Z,94210.16
2022-09-28T23:22:50.006Z,94212.13
2022-09-28T23:25:17.825Z,94213.34
2022-09-28T23:27:46.696Z,94211.09
2022-09-28T23:30:15.484Z,94214.72
2022-09-28T23:32:42.354Z,94215.63
2022-09-28T23:35:10.463Z,94219.53
2022-09-28T23:37:37.721Z,94221.81
2022-09-28T23:40:06.396Z,94215.16
2022-09-28T23:42:34.763Z,94216.94
2022-09-28T23:45:01.845Z,94213.16
2022-09-28T23:47:29.551Z,94209.03
2022-09-28T23:49:56.394Z,94219.94
2022-09-28T23:52:23.132Z,94204.72
2022-09-28T23:54:50.147Z,94200.28
2022-09-28T23:57:16.875Z,94201.28
2022-09-28T23:59:44.347Z,94215.03
